sensor_id;sensor_type;location;lat;lon;timestamp;P1;durP1;ratioP1;P2;durP2;ratioP2
80975;SDS011;70437;49.466;11.002;2023-12-20T00:00:20;4.10;;;2.50;;
80975;SDS011;70437;49.466;11.002;2023-12-20T00:02:49;2.88;;;1.80;;
80975;SDS011;70437;49.466;11.002;2023-12-20T00:05:17;2.75;;;1.73;;
80975;SDS011;70437;49.466;11.002;2023-12-20T00:07:46;4.15;;;1.90;;
80975;SDS011;70437;49.466;11.002;2023-12-20T00:10:15;2.15;;;1.60;;
80975;SDS011;70437;49.466;11.002;2023-12-20T00:12:45;2.65;;;1.67;;
80975;SDS011;70437;49.466;11.002;2023-12-20T00:15:14;3.00;;;1.52;;
80975;SDS011;70437;49.466;11.002;2023-12-20T00:17:43;3.33;;;1.90;;
80975;SDS011;70437;49.466;11.002;2023-12-20T00:20:12;5.88;;;2.13;;
80975;SDS011;70437;49.466;11.002;2023-12-20T00:22:41;2.40;;;1.63;;
80975;SDS011;70437;49.466;11.002;2023-12-20T00:25:09;3.55;;;2.15;;
80975;SDS011;70437;49.466;11.002;2023-12-20T00:27:38;2.78;;;1.70;;
80975;SDS011;70437;49.466;11.002;2023-12-20T00:30:09;5.28;;;2.10;;
80975;SDS011;70437;49.466;11.002;2023-12-20T00:32:39;2.65;;;1.45;;
80975;SDS011;70437;49.466;11.002;2023-12-20T00:35:13;2.67;;;1.73;;
80975;SDS011;70437;49.466;11.002;2023-12-20T00:37:42;4.05;;;2.20;;
80975;SDS011;70437;49.466;11.002;2023-12-20T00:40:12;4.05;;;2.03;;
80975;SDS011;70437;49.466;11.002;2023-12-20T00:42:41;2.88;;;1.45;;
80975;SDS011;70437;49.466;11.002;2023-12-20T00:45:11;2.45;;;1.52;;
80975;SDS011;70437;49.466;11.002;2023-12-20T00:47:40;6.72;;;1.75;;
80975;SDS011;70437;49.466;11.002;2023-12-20T00:50:09;3.65;;;2.08;;
80975;SDS011;70437;49.466;11.002;2023-12-20T00:52:38;2.60;;;1.45;;
80975;SDS011;70437;49.466;11.002;2023-12-20T00:55:06;6.22;;;1.20;;
80975;SDS011;70437;49.466;11.002;2023-12-20T00:57:35;3.15;;;1.45;;
80975;SDS011;70437;49.466;11.002;2023-12-20T01:00:05;2.28;;;1.42;;
80975;SDS011;70437;49.466;11.002;2023-12-20T01:02:38;3.45;;;2.13;;
80975;SDS011;70437;49.466;11.002;2023-12-20T01:05:07;5.22;;;1.92;;
80975;SDS011;70437;49.466;11.002;2023-12-20T01:07:36;3.03;;;1.70;;
80975;SDS011;70437;49.466;11.002;2023-12-20T01:10:06;2.47;;;1.42;;
80975;SDS011;70437;49.466;11.002;2023-12-20T01:12:35;2.88;;;1.63;;
80975;SDS011;70437;49.466;11.002;2023-12-20T01:15:04;1.75;;;1.33;;
80975;SDS011;70437;49.466;11.002;2023-12-20T01:17:33;3.00;;;1.52;;
80975;SDS011;70437;49.466;11.002;2023-12-20T01:20:05;2.72;;;1.23;;
80975;SDS011;70437;49.466;11.002;2023-12-20T01:22:34;1.95;;;1.35;;
80975;SDS011;70437;49.466;11.002;2023-12-20T01:25:03;1.27;;;0.80;;
80975;SDS011;70437;49.466;11.002;2023-12-20T01:27:35;2.05;;;1.23;;
80975;SDS011;70437;49.466;11.002;2023-12-20T01:30:04;2.05;;;1.27;;
80975;SDS011;70437;49.466;11.002;2023-12-20T01:32:34;4.07;;;1.48;;
80975;SDS011;70437;49.466;11.002;2023-12-20T01:35:03;1.95;;;1.10;;
80975;SDS011;70437;49.466;11.002;2023-12-20T01:37:33;2.17;;;1.30;;
80975;SDS011;70437;49.466;11.002;2023-12-20T01:40:02;2.28;;;0.80;;
80975;SDS011;70437;49.466;11.002;2023-12-20T01:42:32;1.40;;;1.10;;
80975;SDS011;70437;49.466;11.002;2023-12-20T01:45:00;1.38;;;0.93;;
80975;SDS011;70437;49.466;11.002;2023-12-20T01:47:29;2.05;;;1.33;;
80975;SDS011;70437;49.466;11.002;2023-12-20T01:49:58;1.02;;;0.80;;
80975;SDS011;70437;49.466;11.002;2023-12-20T01:52:28;1.38;;;1.17;;
80975;SDS011;70437;49.466;11.002;2023-12-20T01:54:58;1.13;;;0.98;;
80975;SDS011;70437;49.466;11.002;2023-12-20T01:57:30;1.10;;;0.73;;
80975;SDS011;70437;49.466;11.002;2023-12-20T01:59:59;1.02;;;0.93;;
80975;SDS011;70437;49.466;11.002;2023-12-20T02:02:28;0.65;;;0.65;;
80975;SDS011;70437;49.466;11.002;2023-12-20T02:04:58;1.05;;;0.70;;
80975;SDS011;70437;49.466;11.002;2023-12-20T02:07:28;1.45;;;0.80;;
80975;SDS011;70437;49.466;11.002;2023-12-20T02:09:59;0.68;;;0.68;;
80975;SDS011;70437;49.466;11.002;2023-12-20T02:12:27;0.70;;;0.70;;
80975;SDS011;70437;49.466;11.002;2023-12-20T02:14:56;1.58;;;0.82;;
80975;SDS011;70437;49.466;11.002;2023-12-20T02:17:25;0.63;;;0.63;;
80975;SDS011;70437;49.466;11.002;2023-12-20T02:19:54;1.48;;;0.70;;
80975;SDS011;70437;49.466;11.002;2023-12-20T02:22:26;0.85;;;0.70;;
80975;SDS011;70437;49.466;11.002;2023-12-20T02:24:55;5.90;;;0.95;;
80975;SDS011;70437;49.466;11.002;2023-12-20T02:27:23;0.77;;;0.65;;
80975;SDS011;70437;49.466;11.002;2023-12-20T02:29:52;0.95;;;0.80;;
80975;SDS011;70437;49.466;11.002;2023-12-20T02:32:21;0.60;;;0.57;;
80975;SDS011;70437;49.466;11.002;2023-12-20T02:34:53;1.52;;;0.98;;
80975;SDS011;70437;49.466;11.002;2023-12-20T02:37:24;0.60;;;0.47;;
80975;SDS011;70437;49.466;11.002;2023-12-20T02:39:54;0.93;;;0.50;;
80975;SDS011;70437;49.466;11.002;2023-12-20T02:42:22;2.38;;;0.73;;
80975;SDS011;70437;49.466;11.002;2023-12-20T02:44:51;0.55;;;0.43;;
80975;SDS011;70437;49.466;11.002;2023-12-20T02:47:20;0.98;;;0.70;;
80975;SDS011;70437;49.466;11.002;2023-12-20T02:49:49;0.70;;;0.70;;
80975;SDS011;70437;49.466;11.002;2023-12-20T02:52:18;0.50;;;0.45;;
80975;SDS011;70437;49.466;11.002;2023-12-20T02:54:48;0.50;;;0.50;;
80975;SDS011;70437;49.466;11.002;2023-12-20T02:57:17;5.50;;;0.73;;
80975;SDS011;70437;49.466;11.002;2023-12-20T02:59:45;0.70;;;0.70;;
80975;SDS011;70437;49.466;11.002;2023-12-20T03:02:14;0.45;;;0.45;;
80975;SDS011;70437;49.466;11.002;2023-12-20T03:04:43;0.82;;;0.82;;
80975;SDS011;70437;49.466;11.002;2023-12-20T03:07:12;0.70;;;0.70;;
80975;SDS011;70437;49.466;11.002;2023-12-20T03:09:41;0.60;;;0.60;;
80975;SDS011;70437;49.466;11.002;2023-12-20T03:12:32;0.50;;;0.50;;
80975;SDS011;70437;49.466;11.002;2023-12-20T03:15:01;0.80;;;0.60;;
80975;SDS011;70437;49.466;11.002;2023-12-20T03:17:30;0.73;;;0.70;;
80975;SDS011;70437;49.466;11.002;2023-12-20T03:19:59;1.15;;;0.52;;
80975;SDS011;70437;49.466;11.002;2023-12-20T03:22:27;0.63;;;0.63;;
80975;SDS011;70437;49.466;11.002;2023-12-20T03:24:56;0.70;;;0.70;;
80975;SDS011;70437;49.466;11.002;2023-12-20T03:27:25;0.47;;;0.47;;
80975;SDS011;70437;49.466;11.002;2023-12-20T03:29:56;0.52;;;0.50;;
80975;SDS011;70437;49.466;11.002;2023-12-20T03:32:24;0.85;;;0.77;;
80975;SDS011;70437;49.466;11.002;2023-12-20T03:34:53;0.60;;;0.60;;
80975;SDS011;70437;49.466;11.002;2023-12-20T03:37:22;0.88;;;0.50;;
80975;SDS011;70437;49.466;11.002;2023-12-20T03:39:51;0.60;;;0.60;;
80975;SDS011;70437;49.466;11.002;2023-12-20T03:42:20;0.25;;;0.25;;
80975;SDS011;70437;49.466;11.002;2023-12-20T03:44:49;0.50;;;0.50;;
80975;SDS011;70437;49.466;11.002;2023-12-20T03:47:19;0.38;;;0.38;;
80975;SDS011;70437;49.466;11.002;2023-12-20T03:49:48;1.60;;;1.33;;
80975;SDS011;70437;49.466;11.002;2023-12-20T03:52:17;0.47;;;0.47;;
80975;SDS011;70437;49.466;11.002;2023-12-20T03:54:46;0.68;;;0.68;;
80975;SDS011;70437;49.466;11.002;2023-12-20T03:57:15;0.52;;;0.52;;
80975;SDS011;70437;49.466;11.002;2023-12-20T03:59:43;0.70;;;0.68;;
80975;SDS011;70437;49.466;11.002;2023-12-20T04:02:12;0.43;;;0.28;;
80975;SDS011;70437;49.466;11.002;2023-12-20T04:04:42;0.22;;;0.22;;
80975;SDS011;70437;49.466;11.002;2023-12-20T04:07:11;0.75;;;0.60;;
80975;SDS011;70437;49.466;11.002;2023-12-20T04:09:40;0.50;;;0.50;;
80975;SDS011;70437;49.466;11.002;2023-12-20T04:12:09;0.32;;;0.30;;
80975;SDS011;70437;49.466;11.002;2023-12-20T04:14:38;0.63;;;0.60;;
80975;SDS011;70437;49.466;11.002;2023-12-20T04:17:07;0.17;;;0.17;;
80975;SDS011;70437;49.466;11.002;2023-12-20T04:19:36;0.95;;;0.68;;
80975;SDS011;70437;49.466;11.002;2023-12-20T04:22:06;0.43;;;0.38;;
80975;SDS011;70437;49.466;11.002;2023-12-20T04:24:35;0.60;;;0.60;;
80975;SDS011;70437;49.466;11.002;2023-12-20T04:27:04;0.57;;;0.55;;
80975;SDS011;70437;49.466;11.002;2023-12-20T04:29:32;0.43;;;0.43;;
80975;SDS011;70437;49.466;11.002;2023-12-20T04:32:01;0.43;;;0.43;;
80975;SDS011;70437;49.466;11.002;2023-12-20T04:34:30;0.32;;;0.32;;
80975;SDS011;70437;49.466;11.002;2023-12-20T04:36:59;0.88;;;0.88;;
80975;SDS011;70437;49.466;11.002;2023-12-20T04:39:30;0.85;;;0.70;;
80975;SDS011;70437;49.466;11.002;2023-12-20T04:42:00;1.13;;;0.70;;
80975;SDS011;70437;49.466;11.002;2023-12-20T04:44:29;1.08;;;0.98;;
80975;SDS011;70437;49.466;11.002;2023-12-20T04:46:57;3.00;;;0.85;;
80975;SDS011;70437;49.466;11.002;2023-12-20T04:49:27;0.60;;;0.60;;
80975;SDS011;70437;49.466;11.002;2023-12-20T04:51:55;0.90;;;0.70;;
80975;SDS011;70437;49.466;11.002;2023-12-20T04:54:24;0.55;;;0.55;;
80975;SDS011;70437;49.466;11.002;2023-12-20T04:56:55;1.05;;;0.70;;
80975;SDS011;70437;49.466;11.002;2023-12-20T04:59:24;0.60;;;0.60;;
80975;SDS011;70437;49.466;11.002;2023-12-20T05:01:53;0.70;;;0.70;;
80975;SDS011;70437;49.466;11.002;2023-12-20T05:04:22;0.52;;;0.52;;
80975;SDS011;70437;49.466;11.002;2023-12-20T05:06:51;0.98;;;0.73;;
80975;SDS011;70437;49.466;11.002;2023-12-20T05:09:19;0.60;;;0.60;;
80975;SDS011;70437;49.466;11.002;2023-12-20T05:11:48;1.85;;;1.00;;
80975;SDS011;70437;49.466;11.002;2023-12-20T05:14:18;0.68;;;0.68;;
80975;SDS011;70437;49.466;11.002;2023-12-20T05:16:47;0.70;;;0.57;;
80975;SDS011;70437;49.466;11.002;2023-12-20T05:19:16;0.60;;;0.60;;
80975;SDS011;70437;49.466;11.002;2023-12-20T05:21:45;0.65;;;0.65;;
80975;SDS011;70437;49.466;11.002;2023-12-20T05:24:14;0.80;;;0.80;;
80975;SDS011;70437;49.466;11.002;2023-12-20T05:26:42;0.95;;;0.77;;
80975;SDS011;70437;49.466;11.002;2023-12-20T05:29:11;0.73;;;0.73;;
80975;SDS011;70437;49.466;11.002;2023-12-20T05:31:41;0.68;;;0.60;;
80975;SDS011;70437;49.466;11.002;2023-12-20T05:34:10;0.63;;;0.63;;
80975;SDS011;70437;49.466;11.002;2023-12-20T05:36:39;0.75;;;0.75;;
80975;SDS011;70437;49.466;11.002;2023-12-20T05:39:08;0.52;;;0.52;;
80975;SDS011;70437;49.466;11.002;2023-12-20T05:41:36;0.90;;;0.75;;
80975;SDS011;70437;49.466;11.002;2023-12-20T05:44:05;0.70;;;0.70;;
80975;SDS011;70437;49.466;11.002;2023-12-20T05:46:34;0.75;;;0.63;;
80975;SDS011;70437;49.466;11.002;2023-12-20T05:49:05;1.15;;;0.70;;
80975;SDS011;70437;49.466;11.002;2023-12-20T05:51:34;0.40;;;0.40;;
80975;SDS011;70437;49.466;11.002;2023-12-20T05:54:02;0.82;;;0.60;;
80975;SDS011;70437;49.466;11.002;2023-12-20T05:56:31;0.57;;;0.50;;
80975;SDS011;70437;49.466;11.002;2023-12-20T05:59:12;0.60;;;0.47;;
80975;SDS011;70437;49.466;11.002;2023-12-20T06:01:41;1.00;;;0.68;;
80975;SDS011;70437;49.466;11.002;2023-12-20T06:04:12;1.08;;;0.98;;
80975;SDS011;70437;49.466;11.002;2023-12-20T06:06:41;1.00;;;0.90;;
80975;SDS011;70437;49.466;11.002;2023-12-20T06:09:10;1.05;;;0.80;;
80975;SDS011;70437;49.466;11.002;2023-12-20T06:11:42;1.65;;;0.75;;
80975;SDS011;70437;49.466;11.002;2023-12-20T06:14:11;0.98;;;0.70;;
80975;SDS011;70437;49.466;11.002;2023-12-20T06:16:40;0.43;;;0.43;;
80975;SDS011;70437;49.466;11.002;2023-12-20T06:19:15;0.32;;;0.32;;
80975;SDS011;70437;49.466;11.002;2023-12-20T06:21:48;1.65;;;0.90;;
80975;SDS011;70437;49.466;11.002;2023-12-20T06:24:19;1.30;;;1.02;;
80975;SDS011;70437;49.466;11.002;2023-12-20T06:26:48;1.13;;;0.88;;
80975;SDS011;70437;49.466;11.002;2023-12-20T06:29:17;1.05;;;0.80;;
80975;SDS011;70437;49.466;11.002;2023-12-20T06:31:47;1.00;;;1.00;;
80975;SDS011;70437;49.466;11.002;2023-12-20T06:34:18;1.23;;;0.80;;
80975;SDS011;70437;49.466;11.002;2023-12-20T06:36:47;1.60;;;1.10;;
80975;SDS011;70437;49.466;11.002;2023-12-20T06:39:16;2.83;;;0.80;;
80975;SDS011;70437;49.466;11.002;2023-12-20T06:41:45;1.15;;;1.00;;
80975;SDS011;70437;49.466;11.002;2023-12-20T06:44:13;0.70;;;0.70;;
80975;SDS011;70437;49.466;11.002;2023-12-20T06:46:42;1.50;;;0.90;;
80975;SDS011;70437;49.466;11.002;2023-12-20T06:49:11;0.70;;;0.70;;
80975;SDS011;70437;49.466;11.002;2023-12-20T06:51:42;0.93;;;0.52;;
80975;SDS011;70437;49.466;11.002;2023-12-20T06:54:10;0.80;;;0.80;;
80975;SDS011;70437;49.466;11.002;2023-12-20T06:56:39;1.40;;;0.93;;
80975;SDS011;70437;49.466;11.002;2023-12-20T07:03:02;0.77;;;0.75;;
80975;SDS011;70437;49.466;11.002;2023-12-20T07:05:37;1.25;;;1.00;;
80975;SDS011;70437;49.466;11.002;2023-12-20T07:08:16;1.05;;;0.75;;
80975;SDS011;70437;49.466;11.002;2023-12-20T07:10:48;2.28;;;1.30;;
80975;SDS011;70437;49.466;11.002;2023-12-20T07:13:18;2.22;;;1.42;;
80975;SDS011;70437;49.466;11.002;2023-12-20T07:15:48;1.10;;;0.95;;
80975;SDS011;70437;49.466;11.002;2023-12-20T07:18:18;2.10;;;0.98;;
80975;SDS011;70437;49.466;11.002;2023-12-20T07:20:49;2.63;;;0.85;;
80975;SDS011;70437;49.466;11.002;2023-12-20T07:23:29;0.68;;;0.68;;
80975;SDS011;70437;49.466;11.002;2023-12-20T07:26:00;2.80;;;1.40;;
80975;SDS011;70437;49.466;11.002;2023-12-20T07:28:29;2.50;;;1.00;;
80975;SDS011;70437;49.466;11.002;2023-12-20T07:31:01;2.40;;;1.38;;
80975;SDS011;70437;49.466;11.002;2023-12-20T07:33:30;1.20;;;0.95;;
80975;SDS011;70437;49.466;11.002;2023-12-20T07:36:06;1.55;;;1.20;;
80975;SDS011;70437;49.466;11.002;2023-12-20T07:38:38;2.38;;;1.50;;
80975;SDS011;70437;49.466;11.002;2023-12-20T07:41:10;1.73;;;1.30;;
80975;SDS011;70437;49.466;11.002;2023-12-20T07:43:40;2.05;;;1.50;;
80975;SDS011;70437;49.466;11.002;2023-12-20T07:46:11;1.45;;;1.27;;
80975;SDS011;70437;49.466;11.002;2023-12-20T07:48:45;3.22;;;1.52;;
80975;SDS011;70437;49.466;11.002;2023-12-20T07:51:21;2.08;;;1.27;;
80975;SDS011;70437;49.466;11.002;2023-12-20T07:53:53;1.83;;;1.05;;
80975;SDS011;70437;49.466;11.002;2023-12-20T07:56:24;1.88;;;1.30;;
80975;SDS011;70437;49.466;11.002;2023-12-20T07:58:57;1.80;;;1.23;;
80975;SDS011;70437;49.466;11.002;2023-12-20T08:01:27;1.30;;;1.08;;
80975;SDS011;70437;49.466;11.002;2023-12-20T08:03:58;1.08;;;0.80;;
80975;SDS011;70437;49.466;11.002;2023-12-20T08:06:29;0.88;;;0.77;;
80975;SDS011;70437;49.466;11.002;2023-12-20T08:09:02;3.17;;;1.40;;
80975;SDS011;70437;49.466;11.002;2023-12-20T08:11:34;6.15;;;3.70;;
80975;SDS011;70437;49.466;11.002;2023-12-20T08:14:06;1.33;;;1.00;;
80975;SDS011;70437;49.466;11.002;2023-12-20T08:16:35;1.17;;;1.08;;
80975;SDS011;70437;49.466;11.002;2023-12-20T08:19:10;2.63;;;1.42;;
80975;SDS011;70437;49.466;11.002;2023-12-20T08:21:43;2.35;;;1.30;;
80975;SDS011;70437;49.466;11.002;2023-12-20T08:24:14;1.38;;;1.05;;
80975;SDS011;70437;49.466;11.002;2023-12-20T08:26:47;1.35;;;1.10;;
80975;SDS011;70437;49.466;11.002;2023-12-20T08:29:19;1.83;;;1.20;;
80975;SDS011;70437;49.466;11.002;2023-12-20T08:31:52;1.58;;;1.00;;
80975;SDS011;70437;49.466;11.002;2023-12-20T08:34:27;1.70;;;1.15;;
80975;SDS011;70437;49.466;11.002;2023-12-20T08:36:57;2.58;;;1.42;;
80975;SDS011;70437;49.466;11.002;2023-12-20T08:39:30;1.20;;;0.93;;
80975;SDS011;70437;49.466;11.002;2023-12-20T08:42:00;1.55;;;1.08;;
80975;SDS011;70437;49.466;11.002;2023-12-20T08:44:31;1.65;;;1.23;;
80975;SDS011;70437;49.466;11.002;2023-12-20T08:47:15;1.25;;;1.02;;
80975;SDS011;70437;49.466;11.002;2023-12-20T08:49:48;1.10;;;0.95;;
80975;SDS011;70437;49.466;11.002;2023-12-20T08:52:17;1.70;;;1.23;;
80975;SDS011;70437;49.466;11.002;2023-12-20T08:54:50;1.70;;;1.00;;
80975;SDS011;70437;49.466;11.002;2023-12-20T08:57:22;2.45;;;1.50;;
80975;SDS011;70437;49.466;11.002;2023-12-20T08:59:55;2.17;;;1.42;;
80975;SDS011;70437;49.466;11.002;2023-12-20T09:02:25;2.00;;;1.13;;
80975;SDS011;70437;49.466;11.002;2023-12-20T09:04:57;1.58;;;1.10;;
80975;SDS011;70437;49.466;11.002;2023-12-20T09:07:31;1.95;;;1.15;;
80975;SDS011;70437;49.466;11.002;2023-12-20T09:10:02;1.05;;;0.90;;
80975;SDS011;70437;49.466;11.002;2023-12-20T09:12:32;1.42;;;1.05;;
80975;SDS011;70437;49.466;11.002;2023-12-20T09:15:12;1.10;;;1.02;;
80975;SDS011;70437;49.466;11.002;2023-12-20T09:17:47;1.52;;;1.17;;
80975;SDS011;70437;49.466;11.002;2023-12-20T09:20:23;1.25;;;0.93;;
80975;SDS011;70437;49.466;11.002;2023-12-20T09:22:55;1.13;;;0.70;;
80975;SDS011;70437;49.466;11.002;2023-12-20T09:25:28;1.33;;;1.02;;
80975;SDS011;70437;49.466;11.002;2023-12-20T09:27:59;0.95;;;0.80;;
80975;SDS011;70437;49.466;11.002;2023-12-20T09:30:30;7.38;;;1.08;;
80975;SDS011;70437;49.466;11.002;2023-12-20T09:33:03;1.13;;;0.80;;
80975;SDS011;70437;49.466;11.002;2023-12-20T09:35:35;1.85;;;0.93;;
80975;SDS011;70437;49.466;11.002;2023-12-20T09:38:12;1.13;;;0.70;;
80975;SDS011;70437;49.466;11.002;2023-12-20T09:40:47;1.27;;;0.70;;
80975;SDS011;70437;49.466;11.002;2023-12-20T09:43:19;2.38;;;1.00;;
80975;SDS011;70437;49.466;11.002;2023-12-20T09:45:59;0.88;;;0.57;;
80975;SDS011;70437;49.466;11.002;2023-12-20T09:48:38;1.08;;;0.80;;
80975;SDS011;70437;49.466;11.002;2023-12-20T09:51:12;3.33;;;1.10;;
80975;SDS011;70437;49.466;11.002;2023-12-20T09:53:41;0.82;;;0.75;;
80975;SDS011;70437;49.466;11.002;2023-12-20T09:56:17;1.13;;;0.82;;
80975;SDS011;70437;49.466;11.002;2023-12-20T09:58:49;2.33;;;0.80;;
80975;SDS011;70437;49.466;11.002;2023-12-20T10:01:22;4.65;;;0.90;;
80975;SDS011;70437;49.466;11.002;2023-12-20T10:03:52;0.80;;;0.80;;
80975;SDS011;70437;49.466;11.002;2023-12-20T10:06:38;2.13;;;0.85;;
80975;SDS011;70437;49.466;11.002;2023-12-20T10:09:08;1.40;;;0.70;;
80975;SDS011;70437;49.466;11.002;2023-12-20T10:11:39;2.45;;;0.88;;
80975;SDS011;70437;49.466;11.002;2023-12-20T10:14:12;3.10;;;0.90;;
80975;SDS011;70437;49.466;11.002;2023-12-20T10:16:44;4.05;;;0.80;;
80975;SDS011;70437;49.466;11.002;2023-12-20T10:19:16;3.15;;;0.95;;
80975;SDS011;70437;49.466;11.002;2023-12-20T10:21:47;1.10;;;0.88;;
80975;SDS011;70437;49.466;11.002;2023-12-20T10:24:17;1.38;;;0.70;;
80975;SDS011;70437;49.466;11.002;2023-12-20T10:27:02;1.65;;;0.75;;
80975;SDS011;70437;49.466;11.002;2023-12-20T10:29:34;1.90;;;0.80;;
80975;SDS011;70437;49.466;11.002;2023-12-20T10:32:21;0.60;;;0.50;;
80975;SDS011;70437;49.466;11.002;2023-12-20T10:34:53;1.92;;;0.60;;
80975;SDS011;70437;49.466;11.002;2023-12-20T10:37:27;0.77;;;0.52;;
80975;SDS011;70437;49.466;11.002;2023-12-20T10:40:00;1.70;;;0.80;;
80975;SDS011;70437;49.466;11.002;2023-12-20T10:42:37;0.73;;;0.57;;
80975;SDS011;70437;49.466;11.002;2023-12-20T10:45:09;1.00;;;0.60;;
80975;SDS011;70437;49.466;11.002;2023-12-20T10:47:40;0.90;;;0.70;;
80975;SDS011;70437;49.466;11.002;2023-12-20T10:50:14;1.35;;;0.95;;
80975;SDS011;70437;49.466;11.002;2023-12-20T10:52:45;1.70;;;0.85;;
80975;SDS011;70437;49.466;11.002;2023-12-20T10:55:24;2.45;;;1.48;;
80975;SDS011;70437;49.466;11.002;2023-12-20T10:58:00;4.70;;;0.70;;
80975;SDS011;70437;49.466;11.002;2023-12-20T11:00:31;1.33;;;0.80;;
80975;SDS011;70437;49.466;11.002;2023-12-20T11:03:04;0.45;;;0.45;;
80975;SDS011;70437;49.466;11.002;2023-12-20T11:05:41;1.13;;;0.93;;
80975;SDS011;70437;49.466;11.002;2023-12-20T11:08:24;0.57;;;0.50;;
80975;SDS011;70437;49.466;11.002;2023-12-20T11:10:58;2.80;;;0.70;;
80975;SDS011;70437;49.466;11.002;2023-12-20T11:13:37;0.73;;;0.60;;
80975;SDS011;70437;49.466;11.002;2023-12-20T11:16:16;2.33;;;0.73;;
80975;SDS011;70437;49.466;11.002;2023-12-20T11:18:50;1.50;;;0.82;;
80975;SDS011;70437;49.466;11.002;2023-12-20T11:21:21;2.53;;;0.57;;
80975;SDS011;70437;49.466;11.002;2023-12-20T11:23:53;3.38;;;0.85;;
80975;SDS011;70437;49.466;11.002;2023-12-20T11:26:26;4.03;;;0.73;;
80975;SDS011;70437;49.466;11.002;2023-12-20T11:32:01;3.95;;;0.95;;
80975;SDS011;70437;49.466;11.002;2023-12-20T11:34:31;1.83;;;0.73;;
80975;SDS011;70437;49.466;11.002;2023-12-20T11:37:05;4.68;;;0.80;;
80975;SDS011;70437;49.466;11.002;2023-12-20T11:39:36;1.35;;;0.52;;
80975;SDS011;70437;49.466;11.002;2023-12-20T11:42:07;2.10;;;0.77;;
80975;SDS011;70437;49.466;11.002;2023-12-20T11:44:41;2.22;;;0.90;;
80975;SDS011;70437;49.466;11.002;2023-12-20T11:47:20;1.90;;;0.73;;
80975;SDS011;70437;49.466;11.002;2023-12-20T11:49:53;1.35;;;0.65;;
80975;SDS011;70437;49.466;11.002;2023-12-20T11:52:28;1.75;;;0.98;;
80975;SDS011;70437;49.466;11.002;2023-12-20T11:54:59;0.73;;;0.68;;
80975;SDS011;70437;49.466;11.002;2023-12-20T11:57:29;1.38;;;0.90;;
80975;SDS011;70437;49.466;11.002;2023-12-20T12:00:05;2.50;;;1.30;;
80975;SDS011;70437;49.466;11.002;2023-12-20T12:02:40;1.73;;;1.15;;
80975;SDS011;70437;49.466;11.002;2023-12-20T12:05:15;1.88;;;1.17;;
80975;SDS011;70437;49.466;11.002;2023-12-20T12:07:44;2.65;;;0.85;;
80975;SDS011;70437;49.466;11.002;2023-12-20T12:10:16;2.00;;;1.00;;
80975;SDS011;70437;49.466;11.002;2023-12-20T12:12:49;0.82;;;0.77;;
80975;SDS011;70437;49.466;11.002;2023-12-20T12:15:23;0.73;;;0.73;;
80975;SDS011;70437;49.466;11.002;2023-12-20T12:17:56;2.25;;;0.90;;
80975;SDS011;70437;49.466;11.002;2023-12-20T12:20:27;1.73;;;0.82;;
80975;SDS011;70437;49.466;11.002;2023-12-20T12:22:58;3.90;;;0.95;;
80975;SDS011;70437;49.466;11.002;2023-12-20T12:25:28;2.33;;;1.02;;
80975;SDS011;70437;49.466;11.002;2023-12-20T12:28:01;2.30;;;1.10;;
80975;SDS011;70437;49.466;11.002;2023-12-20T12:30:32;3.95;;;1.20;;
80975;SDS011;70437;49.466;11.002;2023-12-20T12:33:12;1.42;;;1.20;;
80975;SDS011;70437;49.466;11.002;2023-12-20T12:35:45;3.00;;;1.20;;
80975;SDS011;70437;49.466;11.002;2023-12-20T12:38:16;4.40;;;1.10;;
80975;SDS011;70437;49.466;11.002;2023-12-20T12:40:49;1.17;;;0.90;;
80975;SDS011;70437;49.466;11.002;2023-12-20T12:43:21;6.18;;;1.17;;
80975;SDS011;70437;49.466;11.002;2023-12-20T12:45:54;3.28;;;1.05;;
80975;SDS011;70437;49.466;11.002;2023-12-20T12:48:25;2.03;;;0.95;;
80975;SDS011;70437;49.466;11.002;2023-12-20T12:50:55;1.48;;;1.00;;
80975;SDS011;70437;49.466;11.002;2023-12-20T12:53:28;1.50;;;0.75;;
80975;SDS011;70437;49.466;11.002;2023-12-20T12:55:58;3.60;;;1.40;;
80975;SDS011;70437;49.466;11.002;2023-12-20T12:58:27;2.88;;;1.00;;
80975;SDS011;70437;49.466;11.002;2023-12-20T13:01:00;1.50;;;0.77;;
80975;SDS011;70437;49.466;11.002;2023-12-20T13:03:32;11.90;;;1.48;;
80975;SDS011;70437;49.466;11.002;2023-12-20T13:06:08;2.50;;;1.63;;
80975;SDS011;70437;49.466;11.002;2023-12-20T13:08:40;3.80;;;1.00;;
80975;SDS011;70437;49.466;11.002;2023-12-20T13:11:12;1.88;;;1.00;;
80975;SDS011;70437;49.466;11.002;2023-12-20T13:13:41;4.15;;;1.38;;
80975;SDS011;70437;49.466;11.002;2023-12-20T13:16:11;3.20;;;0.90;;
80975;SDS011;70437;49.466;11.002;2023-12-20T13:18:42;1.75;;;1.02;;
80975;SDS011;70437;49.466;11.002;2023-12-20T13:21:12;2.10;;;0.90;;
80975;SDS011;70437;49.466;11.002;2023-12-20T13:23:41;1.73;;;1.23;;
80975;SDS011;70437;49.466;11.002;2023-12-20T13:26:12;0.70;;;0.70;;
80975;SDS011;70437;49.466;11.002;2023-12-20T13:28:44;0.80;;;0.80;;
80975;SDS011;70437;49.466;11.002;2023-12-20T13:31:20;2.75;;;1.08;;
80975;SDS011;70437;49.466;11.002;2023-12-20T13:36:20;1.98;;;0.95;;
80975;SDS011;70437;49.466;11.002;2023-12-20T13:38:54;6.63;;;1.10;;
80975;SDS011;70437;49.466;11.002;2023-12-20T13:41:26;1.42;;;1.20;;
80975;SDS011;70437;49.466;11.002;2023-12-20T13:43:58;1.55;;;0.98;;
80975;SDS011;70437;49.466;11.002;2023-12-20T13:46:32;5.43;;;1.13;;
80975;SDS011;70437;49.466;11.002;2023-12-20T13:49:02;3.03;;;1.13;;
80975;SDS011;70437;49.466;11.002;2023-12-20T13:51:35;6.63;;;1.45;;
80975;SDS011;70437;49.466;11.002;2023-12-20T13:56:38;4.07;;;0.82;;
80975;SDS011;70437;49.466;11.002;2023-12-20T13:59:23;1.70;;;1.00;;
80975;SDS011;70437;49.466;11.002;2023-12-20T14:01:55;4.20;;;0.75;;
80975;SDS011;70437;49.466;11.002;2023-12-20T14:04:24;0.70;;;0.65;;
80975;SDS011;70437;49.466;11.002;2023-12-20T14:07:09;6.53;;;1.13;;
80975;SDS011;70437;49.466;11.002;2023-12-20T14:09:39;4.68;;;0.98;;
80975;SDS011;70437;49.466;11.002;2023-12-20T14:12:15;3.75;;;0.90;;
80975;SDS011;70437;49.466;11.002;2023-12-20T14:14:46;3.53;;;0.77;;
80975;SDS011;70437;49.466;11.002;2023-12-20T14:17:18;0.77;;;0.73;;
80975;SDS011;70437;49.466;11.002;2023-12-20T14:19:52;3.13;;;1.30;;
80975;SDS011;70437;49.466;11.002;2023-12-20T14:22:25;1.45;;;1.10;;
80975;SDS011;70437;49.466;11.002;2023-12-20T14:24:58;0.85;;;0.80;;
80975;SDS011;70437;49.466;11.002;2023-12-20T14:27:28;1.67;;;0.85;;
80975;SDS011;70437;49.466;11.002;2023-12-20T14:30:00;1.02;;;0.60;;
80975;SDS011;70437;49.466;11.002;2023-12-20T14:32:35;1.00;;;0.60;;
80975;SDS011;70437;49.466;11.002;2023-12-20T14:35:06;2.58;;;1.20;;
80975;SDS011;70437;49.466;11.002;2023-12-20T14:37:37;1.48;;;0.82;;
80975;SDS011;70437;49.466;11.002;2023-12-20T14:40:08;1.70;;;1.10;;
80975;SDS011;70437;49.466;11.002;2023-12-20T14:42:44;3.03;;;1.02;;
80975;SDS011;70437;49.466;11.002;2023-12-20T14:45:16;1.13;;;1.00;;
80975;SDS011;70437;49.466;11.002;2023-12-20T14:47:48;1.58;;;0.93;;
80975;SDS011;70437;49.466;11.002;2023-12-20T14:50:17;6.00;;;1.25;;
80975;SDS011;70437;49.466;11.002;2023-12-20T14:52:48;1.38;;;1.15;;
80975;SDS011;70437;49.466;11.002;2023-12-20T14:55:20;3.35;;;1.00;;
80975;SDS011;70437;49.466;11.002;2023-12-20T14:57:53;1.70;;;1.00;;
80975;SDS011;70437;49.466;11.002;2023-12-20T15:00:23;5.93;;;0.90;;
80975;SDS011;70437;49.466;11.002;2023-12-20T15:02:54;5.28;;;1.25;;
80975;SDS011;70437;49.466;11.002;2023-12-20T15:05:26;0.80;;;0.80;;
80975;SDS011;70437;49.466;11.002;2023-12-20T15:07:56;2.38;;;1.00;;